sensor_id;sensor_type;location;lat;lon;timestamp;P1;durP1;ratioP1;P2;durP2;ratioP2
71343;SDS011;59146;43.850;25.948;2024-02-15T00:01:55;23.83;;;11.45;;
71343;SDS011;59146;43.850;25.948;2024-02-15T00:04:20;14.32;;;9.88;;
71343;SDS011;59146;43.850;25.948;2024-02-15T00:06:46;18.52;;;9.95;;
71343;SDS011;59146;43.850;25.948;2024-02-15T00:09:11;14.73;;;9.55;;
71343;SDS011;59146;43.850;25.948;2024-02-15T00:11:37;16.70;;;9.68;;
71343;SDS011;59146;43.850;25.948;2024-02-15T00:14:04;13.13;;;9.00;;
71343;SDS011;59146;43.850;25.948;2024-02-15T00:16:30;16.95;;;9.82;;
71343;SDS011;59146;43.850;25.948;2024-02-15T00:18:59;24.10;;;13.10;;
71343;SDS011;59146;43.850;25.948;2024-02-15T00:21:24;17.52;;;9.95;;
71343;SDS011;59146;43.850;25.948;2024-02-15T00:23:50;18.15;;;11.68;;
71343;SDS011;59146;43.850;25.948;2024-02-15T00:26:15;15.60;;;10.15;;
71343;SDS011;59146;43.850;25.948;2024-02-15T00:28:41;17.08;;;11.77;;
71343;SDS011;59146;43.850;25.948;2024-02-15T00:31:09;16.33;;;9.82;;
71343;SDS011;59146;43.850;25.948;2024-02-15T00:33:34;16.38;;;10.63;;
71343;SDS011;59146;43.850;25.948;2024-02-15T00:36:03;18.17;;;11.15;;
71343;SDS011;59146;43.850;25.948;2024-02-15T00:38:31;25.13;;;13.10;;
71343;SDS011;59146;43.850;25.948;2024-02-15T00:40:57;25.38;;;13.15;;
71343;SDS011;59146;43.850;25.948;2024-02-15T00:43:24;17.45;;;10.65;;
71343;SDS011;59146;43.850;25.948;2024-02-15T00:45:49;16.10;;;10.20;;
71343;SDS011;59146;43.850;25.948;2024-02-15T00:48:15;23.40;;;13.07;;
71343;SDS011;59146;43.850;25.948;2024-02-15T00:50:40;24.02;;;12.88;;
71343;SDS011;59146;43.850;25.948;2024-02-15T00:53:05;18.52;;;11.40;;
71343;SDS011;59146;43.850;25.948;2024-02-15T00:55:31;21.13;;;13.13;;
71343;SDS011;59146;43.850;25.948;2024-02-15T00:57:57;18.10;;;11.85;;
71343;SDS011;59146;43.850;25.948;2024-02-15T01:00:22;16.75;;;11.23;;
71343;SDS011;59146;43.850;25.948;2024-02-15T01:02:48;23.17;;;10.95;;
71343;SDS011;59146;43.850;25.948;2024-02-15T01:05:14;24.60;;;13.15;;
71343;SDS011;59146;43.850;25.948;2024-02-15T01:07:43;19.85;;;11.90;;
71343;SDS011;59146;43.850;25.948;2024-02-15T01:10:09;15.80;;;10.05;;
71343;SDS011;59146;43.850;25.948;2024-02-15T01:12:34;20.55;;;11.88;;
71343;SDS011;59146;43.850;25.948;2024-02-15T01:14:59;19.77;;;12.20;;
71343;SDS011;59146;43.850;25.948;2024-02-15T01:17:25;17.83;;;10.35;;
71343;SDS011;59146;43.850;25.948;2024-02-15T01:19:51;19.13;;;10.93;;
71343;SDS011;59146;43.850;25.948;2024-02-15T01:22:18;24.20;;;11.95;;
71343;SDS011;59146;43.850;25.948;2024-02-15T01:24:44;19.38;;;10.90;;
71343;SDS011;59146;43.850;25.948;2024-02-15T01:27:10;19.98;;;11.20;;
71343;SDS011;59146;43.850;25.948;2024-02-15T01:29:35;14.05;;;9.52;;
71343;SDS011;59146;43.850;25.948;2024-02-15T01:32:01;21.83;;;12.57;;
71343;SDS011;59146;43.850;25.948;2024-02-15T01:34:27;17.02;;;9.95;;
71343;SDS011;59146;43.850;25.948;2024-02-15T01:36:53;15.73;;;10.35;;
71343;SDS011;59146;43.850;25.948;2024-02-15T01:39:18;17.65;;;10.55;;
71343;SDS011;59146;43.850;25.948;2024-02-15T01:41:47;16.48;;;11.00;;
71343;SDS011;59146;43.850;25.948;2024-02-15T01:44:13;19.73;;;11.10;;
71343;SDS011;59146;43.850;25.948;2024-02-15T01:46:39;17.52;;;11.20;;
71343;SDS011;59146;43.850;25.948;2024-02-15T01:49:05;19.95;;;10.90;;
71343;SDS011;59146;43.850;25.948;2024-02-15T01:51:32;17.45;;;10.48;;
71343;SDS011;59146;43.850;25.948;2024-02-15T01:54:00;16.77;;;10.02;;
71343;SDS011;59146;43.850;25.948;2024-02-15T01:56:26;16.15;;;10.35;;
71343;SDS011;59146;43.850;25.948;2024-02-15T01:58:53;15.30;;;10.45;;
71343;SDS011;59146;43.850;25.948;2024-02-15T02:01:18;16.85;;;11.02;;
71343;SDS011;59146;43.850;25.948;2024-02-15T02:03:45;17.50;;;11.15;;
71343;SDS011;59146;43.850;25.948;2024-02-15T02:06:10;19.15;;;11.23;;
71343;SDS011;59146;43.850;25.948;2024-02-15T02:08:36;16.58;;;10.27;;
71343;SDS011;59146;43.850;25.948;2024-02-15T02:11:02;15.45;;;9.88;;
71343;SDS011;59146;43.850;25.948;2024-02-15T02:13:28;14.68;;;10.68;;
71343;SDS011;59146;43.850;25.948;2024-02-15T02:15:54;19.70;;;11.38;;
71343;SDS011;59146;43.850;25.948;2024-02-15T02:18:21;15.27;;;10.65;;
71343;SDS011;59146;43.850;25.948;2024-02-15T02:20:47;19.73;;;10.35;;
71343;SDS011;59146;43.850;25.948;2024-02-15T02:23:16;14.60;;;10.32;;
71343;SDS011;59146;43.850;25.948;2024-02-15T02:25:45;15.52;;;10.52;;
71343;SDS011;59146;43.850;25.948;2024-02-15T02:28:14;17.10;;;11.52;;
71343;SDS011;59146;43.850;25.948;2024-02-15T02:30:43;19.75;;;10.73;;
71343;SDS011;59146;43.850;25.948;2024-02-15T02:33:10;17.92;;;11.50;;
71343;SDS011;59146;43.850;25.948;2024-02-15T02:35:43;19.17;;;13.13;;
71343;SDS011;59146;43.850;25.948;2024-02-15T02:38:09;16.33;;;10.70;;
71343;SDS011;59146;43.850;25.948;2024-02-15T02:40:34;18.35;;;12.55;;
71343;SDS011;59146;43.850;25.948;2024-02-15T02:43:01;16.92;;;11.70;;
71343;SDS011;59146;43.850;25.948;2024-02-15T02:45:26;19.85;;;12.45;;
71343;SDS011;59146;43.850;25.948;2024-02-15T02:47:52;23.38;;;12.70;;
71343;SDS011;59146;43.850;25.948;2024-02-15T02:50:19;19.23;;;12.18;;
71343;SDS011;59146;43.850;25.948;2024-02-15T02:52:45;29.55;;;14.05;;
71343;SDS011;59146;43.850;25.948;2024-02-15T02:55:13;22.40;;;12.05;;
71343;SDS011;59146;43.850;25.948;2024-02-15T02:57:39;19.65;;;12.20;;
71343;SDS011;59146;43.850;25.948;2024-02-15T03:00:05;19.80;;;12.02;;
71343;SDS011;59146;43.850;25.948;2024-02-15T03:02:34;19.40;;;12.55;;
71343;SDS011;59146;43.850;25.948;2024-02-15T03:05:05;18.98;;;11.75;;
71343;SDS011;59146;43.850;25.948;2024-02-15T03:07:33;17.33;;;12.00;;
71343;SDS011;59146;43.850;25.948;2024-02-15T03:09:59;28.00;;;13.27;;
71343;SDS011;59146;43.850;25.948;2024-02-15T03:12:24;19.98;;;13.45;;
71343;SDS011;59146;43.850;25.948;2024-02-15T03:14:51;28.58;;;14.00;;
71343;SDS011;59146;43.850;25.948;2024-02-15T03:17:17;27.80;;;14.65;;
71343;SDS011;59146;43.850;25.948;2024-02-15T03:19:42;20.27;;;13.98;;
71343;SDS011;59146;43.850;25.948;2024-02-15T03:22:08;23.77;;;14.32;;
71343;SDS011;59146;43.850;25.948;2024-02-15T03:24:33;22.15;;;13.50;;
71343;SDS011;59146;43.850;25.948;2024-02-15T03:26:58;26.13;;;14.50;;
71343;SDS011;59146;43.850;25.948;2024-02-15T03:29:25;21.88;;;13.77;;
71343;SDS011;59146;43.850;25.948;2024-02-15T03:31:50;23.80;;;12.82;;
71343;SDS011;59146;43.850;25.948;2024-02-15T03:34:18;26.25;;;14.82;;
71343;SDS011;59146;43.850;25.948;2024-02-15T03:36:46;22.25;;;13.70;;
71343;SDS011;59146;43.850;25.948;2024-02-15T03:39:13;22.05;;;13.18;;
71343;SDS011;59146;43.850;25.948;2024-02-15T03:41:38;23.20;;;14.57;;
71343;SDS011;59146;43.850;25.948;2024-02-15T03:44:04;23.13;;;15.93;;
71343;SDS011;59146;43.850;25.948;2024-02-15T03:46:29;27.83;;;19.05;;
71343;SDS011;59146;43.850;25.948;2024-02-15T03:48:55;30.23;;;20.23;;
71343;SDS011;59146;43.850;25.948;2024-02-15T03:51:23;36.40;;;21.48;;
71343;SDS011;59146;43.850;25.948;2024-02-15T03:53:50;25.88;;;17.63;;
71343;SDS011;59146;43.850;25.948;2024-02-15T03:56:17;24.88;;;16.85;;
71343;SDS011;59146;43.850;25.948;2024-02-15T03:58:44;24.02;;;17.02;;
71343;SDS011;59146;43.850;25.948;2024-02-15T04:01:10;29.83;;;17.65;;
71343;SDS011;59146;43.850;25.948;2024-02-15T04:03:38;26.58;;;16.55;;
71343;SDS011;59146;43.850;25.948;2024-02-15T04:06:04;26.10;;;17.25;;
71343;SDS011;59146;43.850;25.948;2024-02-15T04:08:30;25.38;;;17.08;;
71343;SDS011;59146;43.850;25.948;2024-02-15T04:10:55;27.45;;;15.85;;
71343;SDS011;59146;43.850;25.948;2024-02-15T04:13:22;31.45;;;17.17;;
71343;SDS011;59146;43.850;25.948;2024-02-15T04:15:48;29.42;;;16.38;;
71343;SDS011;59146;43.850;25.948;2024-02-15T04:18:15;22.40;;;14.77;;
71343;SDS011;59146;43.850;25.948;2024-02-15T04:20:41;24.52;;;15.27;;
71343;SDS011;59146;43.850;25.948;2024-02-15T04:23:12;24.90;;;14.23;;
71343;SDS011;59146;43.850;25.948;2024-02-15T04:25:38;27.35;;;15.27;;
71343;SDS011;59146;43.850;25.948;2024-02-15T04:28:04;23.00;;;15.40;;
71343;SDS011;59146;43.850;25.948;2024-02-15T04:30:30;24.95;;;14.23;;
71343;SDS011;59146;43.850;25.948;2024-02-15T04:32:56;29.40;;;21.02;;
71343;SDS011;59146;43.850;25.948;2024-02-15T04:35:22;33.15;;;23.48;;
71343;SDS011;59146;43.850;25.948;2024-02-15T04:37:47;38.05;;;24.95;;
71343;SDS011;59146;43.850;25.948;2024-02-15T04:40:14;36.78;;;25.92;;
71343;SDS011;59146;43.850;25.948;2024-02-15T04:42:40;37.38;;;26.15;;
71343;SDS011;59146;43.850;25.948;2024-02-15T04:45:07;29.85;;;21.55;;
71343;SDS011;59146;43.850;25.948;2024-02-15T04:47:33;35.47;;;22.75;;
71343;SDS011;59146;43.850;25.948;2024-02-15T04:49:59;31.77;;;22.10;;
71343;SDS011;59146;43.850;25.948;2024-02-15T04:52:25;30.80;;;21.83;;
71343;SDS011;59146;43.850;25.948;2024-02-15T04:54:50;31.50;;;21.45;;
71343;SDS011;59146;43.850;25.948;2024-02-15T04:57:19;32.97;;;22.73;;
71343;SDS011;59146;43.850;25.948;2024-02-15T04:59:44;32.83;;;21.98;;
71343;SDS011;59146;43.850;25.948;2024-02-15T05:02:12;33.83;;;21.33;;
71343;SDS011;59146;43.850;25.948;2024-02-15T05:04:38;30.35;;;20.35;;
71343;SDS011;59146;43.850;25.948;2024-02-15T05:07:03;36.10;;;24.75;;
71343;SDS011;59146;43.850;25.948;2024-02-15T05:09:29;47.33;;;30.65;;
71343;SDS011;59146;43.850;25.948;2024-02-15T05:11:56;49.60;;;36.92;;
71343;SDS011;59146;43.850;25.948;2024-02-15T05:14:24;60.05;;;42.30;;
71343;SDS011;59146;43.850;25.948;2024-02-15T05:16:51;63.13;;;43.45;;
71343;SDS011;59146;43.850;25.948;2024-02-15T05:19:16;61.72;;;44.00;;
71343;SDS011;59146;43.850;25.948;2024-02-15T05:21:42;63.30;;;45.03;;
71343;SDS011;59146;43.850;25.948;2024-02-15T05:24:17;68.13;;;46.10;;
71343;SDS011;59146;43.850;25.948;2024-02-15T05:26:44;66.78;;;46.92;;
71343;SDS011;59146;43.850;25.948;2024-02-15T05:29:17;62.92;;;41.20;;
71343;SDS011;59146;43.850;25.948;2024-02-15T05:31:42;57.33;;;38.83;;
71343;SDS011;59146;43.850;25.948;2024-02-15T05:34:09;61.08;;;39.50;;
71343;SDS011;59146;43.850;25.948;2024-02-15T05:36:36;57.53;;;38.17;;
71343;SDS011;59146;43.850;25.948;2024-02-15T05:39:03;70.78;;;43.25;;
71343;SDS011;59146;43.850;25.948;2024-02-15T05:41:28;65.85;;;44.88;;
71343;SDS011;59146;43.850;25.948;2024-02-15T05:43:54;92.43;;;50.35;;
71343;SDS011;59146;43.850;25.948;2024-02-15T05:46:20;73.97;;;47.35;;
71343;SDS011;59146;43.850;25.948;2024-02-15T05:48:48;68.50;;;42.08;;
71343;SDS011;59146;43.850;25.948;2024-02-15T05:51:14;67.28;;;42.13;;
71343;SDS011;59146;43.850;25.948;2024-02-15T05:53:40;68.38;;;41.42;;
71343;SDS011;59146;43.850;25.948;2024-02-15T05:56:06;65.97;;;36.60;;
71343;SDS011;59146;43.850;25.948;2024-02-15T05:58:33;46.15;;;27.77;;
71343;SDS011;59146;43.850;25.948;2024-02-15T06:01:01;36.00;;;19.63;;
71343;SDS011;59146;43.850;25.948;2024-02-15T06:03:34;34.63;;;20.83;;
71343;SDS011;59146;43.850;25.948;2024-02-15T06:06:02;37.35;;;21.50;;
71343;SDS011;59146;43.850;25.948;2024-02-15T06:08:32;36.67;;;20.73;;
71343;SDS011;59146;43.850;25.948;2024-02-15T06:10:58;41.60;;;18.95;;
71343;SDS011;59146;43.850;25.948;2024-02-15T06:13:24;36.70;;;21.48;;
71343;SDS011;59146;43.850;25.948;2024-02-15T06:15:51;44.30;;;24.60;;
71343;SDS011;59146;43.850;25.948;2024-02-15T06:18:21;39.17;;;20.77;;
71343;SDS011;59146;43.850;25.948;2024-02-15T06:20:55;42.22;;;23.80;;
71343;SDS011;59146;43.850;25.948;2024-02-15T06:23:25;52.70;;;32.58;;
71343;SDS011;59146;43.850;25.948;2024-02-15T06:25:52;51.13;;;29.40;;
71343;SDS011;59146;43.850;25.948;2024-02-15T06:28:21;50.95;;;32.58;;
71343;SDS011;59146;43.850;25.948;2024-02-15T06:31:05;53.55;;;33.35;;
71343;SDS011;59146;43.850;25.948;2024-02-15T06:33:53;43.20;;;28.50;;
71343;SDS011;59146;43.850;25.948;2024-02-15T06:36:46;43.22;;;27.70;;
71343;SDS011;59146;43.850;25.948;2024-02-15T06:39:31;51.67;;;31.77;;
71343;SDS011;59146;43.850;25.948;2024-02-15T06:42:03;43.72;;;28.70;;
71343;SDS011;59146;43.850;25.948;2024-02-15T06:44:29;31.00;;;20.27;;
71343;SDS011;59146;43.850;25.948;2024-02-15T06:46:54;31.58;;;18.45;;
71343;SDS011;59146;43.850;25.948;2024-02-15T06:49:21;28.80;;;17.08;;
71343;SDS011;59146;43.850;25.948;2024-02-15T06:51:49;28.88;;;17.98;;
71343;SDS011;59146;43.850;25.948;2024-02-15T06:54:16;25.55;;;17.80;;
71343;SDS011;59146;43.850;25.948;2024-02-15T06:56:43;26.63;;;16.70;;
71343;SDS011;59146;43.850;25.948;2024-02-15T06:59:11;22.73;;;13.90;;
71343;SDS011;59146;43.850;25.948;2024-02-15T07:01:42;28.75;;;15.35;;
71343;SDS011;59146;43.850;25.948;2024-02-15T07:04:08;25.17;;;17.65;;
71343;SDS011;59146;43.850;25.948;2024-02-15T07:06:37;38.08;;;23.88;;
71343;SDS011;59146;43.850;25.948;2024-02-15T07:09:03;38.47;;;26.05;;
71343;SDS011;59146;43.850;25.948;2024-02-15T07:11:30;41.97;;;24.45;;
71343;SDS011;59146;43.850;25.948;2024-02-15T07:13:57;33.90;;;21.88;;
71343;SDS011;59146;43.850;25.948;2024-02-15T07:16:23;33.67;;;22.13;;
71343;SDS011;59146;43.850;25.948;2024-02-15T07:18:48;24.45;;;18.67;;
71343;SDS011;59146;43.850;25.948;2024-02-15T07:21:14;30.30;;;20.65;;
71343;SDS011;59146;43.850;25.948;2024-02-15T07:23:41;33.58;;;20.25;;
71343;SDS011;59146;43.850;25.948;2024-02-15T07:26:07;35.33;;;19.77;;
71343;SDS011;59146;43.850;25.948;2024-02-15T07:28:33;40.33;;;21.90;;
71343;SDS011;59146;43.850;25.948;2024-02-15T07:30:59;33.08;;;19.83;;
71343;SDS011;59146;43.850;25.948;2024-02-15T07:33:27;34.30;;;21.45;;
71343;SDS011;59146;43.850;25.948;2024-02-15T07:35:54;31.13;;;20.52;;
71343;SDS011;59146;43.850;25.948;2024-02-15T07:38:20;35.65;;;21.17;;
71343;SDS011;59146;43.850;25.948;2024-02-15T07:40:47;27.17;;;19.33;;
71343;SDS011;59146;43.850;25.948;2024-02-15T07:43:13;27.88;;;18.10;;
71343;SDS011;59146;43.850;25.948;2024-02-15T07:45:39;29.55;;;18.00;;
71343;SDS011;59146;43.850;25.948;2024-02-15T07:48:05;26.92;;;18.15;;
71343;SDS011;59146;43.850;25.948;2024-02-15T07:50:31;26.38;;;17.13;;
71343;SDS011;59146;43.850;25.948;2024-02-15T07:52:56;30.75;;;18.15;;
71343;SDS011;59146;43.850;25.948;2024-02-15T07:55:22;30.25;;;20.05;;
71343;SDS011;59146;43.850;25.948;2024-02-15T07:57:49;28.98;;;18.13;;
71343;SDS011;59146;43.850;25.948;2024-02-15T08:00:15;34.78;;;19.02;;
71343;SDS011;59146;43.850;25.948;2024-02-15T08:02:43;24.50;;;16.30;;
71343;SDS011;59146;43.850;25.948;2024-02-15T08:05:12;26.98;;;15.27;;
71343;SDS011;59146;43.850;25.948;2024-02-15T08:07:42;28.17;;;13.68;;
71343;SDS011;59146;43.850;25.948;2024-02-15T08:10:09;23.75;;;12.88;;
71343;SDS011;59146;43.850;25.948;2024-02-15T08:12:41;22.63;;;11.88;;
71343;SDS011;59146;43.850;25.948;2024-02-15T08:15:08;21.88;;;11.35;;
71343;SDS011;59146;43.850;25.948;2024-02-15T08:17:43;19.23;;;10.38;;
71343;SDS011;59146;43.850;25.948;2024-02-15T08:20:12;16.48;;;8.98;;
71343;SDS011;59146;43.850;25.948;2024-02-15T08:22:39;13.13;;;8.77;;
71343;SDS011;59146;43.850;25.948;2024-02-15T08:25:11;13.68;;;8.35;;
71343;SDS011;59146;43.850;25.948;2024-02-15T08:27:41;15.55;;;7.80;;
71343;SDS011;59146;43.850;25.948;2024-02-15T08:32:38;15.68;;;8.18;;
71343;SDS011;59146;43.850;25.948;2024-02-15T08:35:06;13.07;;;8.15;;
71343;SDS011;59146;43.850;25.948;2024-02-15T08:37:33;16.80;;;8.77;;
71343;SDS011;59146;43.850;25.948;2024-02-15T08:40:03;16.17;;;8.20;;
71343;SDS011;59146;43.850;25.948;2024-02-15T08:42:29;14.48;;;7.50;;
71343;SDS011;59146;43.850;25.948;2024-02-15T08:44:55;15.48;;;8.88;;
71343;SDS011;59146;43.850;25.948;2024-02-15T08:47:20;20.88;;;8.30;;
71343;SDS011;59146;43.850;25.948;2024-02-15T08:49:46;11.32;;;8.15;;
71343;SDS011;59146;43.850;25.948;2024-02-15T08:52:11;26.10;;;16.60;;
71343;SDS011;59146;43.850;25.948;2024-02-15T08:54:37;15.48;;;8.63;;
71343;SDS011;59146;43.850;25.948;2024-02-15T08:57:06;13.23;;;7.75;;
71343;SDS011;59146;43.850;25.948;2024-02-15T08:59:32;12.50;;;7.70;;
71343;SDS011;59146;43.850;25.948;2024-02-15T09:01:58;18.75;;;8.88;;
71343;SDS011;59146;43.850;25.948;2024-02-15T09:04:25;13.20;;;8.10;;
71343;SDS011;59146;43.850;25.948;2024-02-15T09:06:51;12.70;;;8.98;;
71343;SDS011;59146;43.850;25.948;2024-02-15T09:09:17;11.02;;;7.97;;
71343;SDS011;59146;43.850;25.948;2024-02-15T09:11:42;15.30;;;8.40;;
71343;SDS011;59146;43.850;25.948;2024-02-15T09:14:08;14.80;;;8.55;;
71343;SDS011;59146;43.850;25.948;2024-02-15T09:16:37;14.85;;;8.35;;
71343;SDS011;59146;43.850;25.948;2024-02-15T09:19:04;14.73;;;9.38;;
71343;SDS011;59146;43.850;25.948;2024-02-15T09:21:31;15.23;;;8.75;;
71343;SDS011;59146;43.850;25.948;2024-02-15T09:23:58;13.77;;;9.82;;
71343;SDS011;59146;43.850;25.948;2024-02-15T09:26:24;15.63;;;8.35;;
71343;SDS011;59146;43.850;25.948;2024-02-15T09:28:49;17.25;;;9.38;;
71343;SDS011;59146;43.850;25.948;2024-02-15T09:31:15;13.57;;;8.98;;
71343;SDS011;59146;43.850;25.948;2024-02-15T09:33:40;19.83;;;9.30;;
71343;SDS011;59146;43.850;25.948;2024-02-15T09:36:06;16.77;;;8.88;;
71343;SDS011;59146;43.850;25.948;2024-02-15T09:38:32;15.88;;;8.93;;
71343;SDS011;59146;43.850;25.948;2024-02-15T09:40:57;14.80;;;9.27;;
71343;SDS011;59146;43.850;25.948;2024-02-15T09:43:23;14.35;;;9.55;;
71343;SDS011;59146;43.850;25.948;2024-02-15T09:45:54;11.27;;;9.18;;
71343;SDS011;59146;43.850;25.948;2024-02-15T09:48:19;18.10;;;13.18;;
71343;SDS011;59146;43.850;25.948;2024-02-15T09:50:52;22.33;;;10.68;;
71343;SDS011;59146;43.850;25.948;2024-02-15T09:53:21;13.40;;;9.60;;
71343;SDS011;59146;43.850;25.948;2024-02-15T09:55:51;17.65;;;10.20;;
71343;SDS011;59146;43.850;25.948;2024-02-15T09:58:19;17.60;;;9.80;;
71343;SDS011;59146;43.850;25.948;2024-02-15T10:00:45;18.52;;;10.25;;
71343;SDS011;59146;43.850;25.948;2024-02-15T10:03:11;15.20;;;11.05;;
71343;SDS011;59146;43.850;25.948;2024-02-15T10:05:41;16.98;;;9.95;;
71343;SDS011;59146;43.850;25.948;2024-02-15T10:08:07;23.60;;;12.35;;
71343;SDS011;59146;43.850;25.948;2024-02-15T10:10:32;14.35;;;9.73;;
71343;SDS011;59146;43.850;25.948;2024-02-15T10:13:00;15.57;;;10.40;;
71343;SDS011;59146;43.850;25.948;2024-02-15T10:15:26;19.02;;;10.07;;
71343;SDS011;59146;43.850;25.948;2024-02-15T10:17:56;16.35;;;11.10;;
71343;SDS011;59146;43.850;25.948;2024-02-15T10:20:23;19.38;;;12.45;;
71343;SDS011;59146;43.850;25.948;2024-02-15T10:23:08;21.88;;;11.57;;
71343;SDS011;59146;43.850;25.948;2024-02-15T10:25:35;12.85;;;9.75;;
71343;SDS011;59146;43.850;25.948;2024-02-15T10:28:05;13.85;;;10.27;;
71343;SDS011;59146;43.850;25.948;2024-02-15T10:30:32;15.30;;;10.57;;
71343;SDS011;59146;43.850;25.948;2024-02-15T10:32:59;20.40;;;11.23;;
71343;SDS011;59146;43.850;25.948;2024-02-15T10:35:24;30.60;;;11.00;;
71343;SDS011;59146;43.850;25.948;2024-02-15T10:37:50;14.07;;;9.73;;
71343;SDS011;59146;43.850;25.948;2024-02-15T10:40:19;15.32;;;10.85;;
71343;SDS011;59146;43.850;25.948;2024-02-15T10:42:48;15.80;;;11.85;;
71343;SDS011;59146;43.850;25.948;2024-02-15T10:45:16;16.70;;;10.80;;
71343;SDS011;59146;43.850;25.948;2024-02-15T10:47:45;18.23;;;9.93;;
71343;SDS011;59146;43.850;25.948;2024-02-15T10:50:12;16.08;;;9.77;;
71343;SDS011;59146;43.850;25.948;2024-02-15T10:52:41;18.67;;;9.98;;
71343;SDS011;59146;43.850;25.948;2024-02-15T10:55:18;18.05;;;10.30;;
71343;SDS011;59146;43.850;25.948;2024-02-15T10:57:49;19.63;;;10.00;;
71343;SDS011;59146;43.850;25.948;2024-02-15T11:00:17;19.35;;;11.18;;
71343;SDS011;59146;43.850;25.948;2024-02-15T11:02:54;17.55;;;10.50;;
71343;SDS011;59146;43.850;25.948;2024-02-15T11:05:33;20.65;;;11.50;;
71343;SDS011;59146;43.850;25.948;2024-02-15T11:08:09;17.98;;;10.07;;
71343;SDS011;59146;43.850;25.948;2024-02-15T11:10:35;18.70;;;10.25;;
71343;SDS011;59146;43.850;25.948;2024-02-15T11:13:02;18.27;;;10.10;;
71343;SDS011;59146;43.850;25.948;2024-02-15T11:15:41;18.20;;;9.55;;
71343;SDS011;59146;43.850;25.948;2024-02-15T11:18:11;22.77;;;10.30;;
71343;SDS011;59146;43.850;25.948;2024-02-15T11:23:03;12.70;;;9.73;;
71343;SDS011;59146;43.850;25.948;2024-02-15T11:25:33;20.55;;;10.13;;
71343;SDS011;59146;43.850;25.948;2024-02-15T11:30:50;18.55;;;9.98;;
71343;SDS011;59146;43.850;25.948;2024-02-15T11:33:27;23.50;;;9.93;;
71343;SDS011;59146;43.850;25.948;2024-02-15T11:36:03;19.67;;;9.32;;
71343;SDS011;59146;43.850;25.948;2024-02-15T11:38:32;13.68;;;10.07;;
71343;SDS011;59146;43.850;25.948;2024-02-15T11:41:00;16.65;;;11.05;;
71343;SDS011;59146;43.850;25.948;2024-02-15T11:46:13;15.68;;;9.73;;
71343;SDS011;59146;43.850;25.948;2024-02-15T11:48:39;16.15;;;9.60;;
71343;SDS011;59146;43.850;25.948;2024-02-15T11:51:06;17.30;;;8.82;;
71343;SDS011;59146;43.850;25.948;2024-02-15T11:53:32;17.83;;;9.18;;
71343;SDS011;59146;43.850;25.948;2024-02-15T11:56:01;11.13;;;8.57;;
71343;SDS011;59146;43.850;25.948;2024-02-15T11:58:29;16.27;;;8.98;;
71343;SDS011;59146;43.850;25.948;2024-02-15T12:01:07;19.13;;;9.57;;
71343;SDS011;59146;43.850;25.948;2024-02-15T12:03:55;14.15;;;10.32;;
71343;SDS011;59146;43.850;25.948;2024-02-15T12:06:39;28.45;;;9.57;;
71343;SDS011;59146;43.850;25.948;2024-02-15T12:09:43;12.48;;;9.02;;
71343;SDS011;59146;43.850;25.948;2024-02-15T12:12:27;12.93;;;8.38;;
71343;SDS011;59146;43.850;25.948;2024-02-15T12:15:11;17.27;;;8.98;;
71343;SDS011;59146;43.850;25.948;2024-02-15T12:17:55;15.75;;;8.35;;
71343;SDS011;59146;43.850;25.948;2024-02-15T12:20:57;17.70;;;8.82;;
71343;SDS011;59146;43.850;25.948;2024-02-15T12:23:24;24.55;;;9.38;;
71343;SDS011;59146;43.850;25.948;2024-02-15T12:25:53;13.35;;;8.20;;
71343;SDS011;59146;43.850;25.948;2024-02-15T12:28:18;14.27;;;8.02;;
71343;SDS011;59146;43.850;25.948;2024-02-15T12:30:44;19.08;;;8.88;;
71343;SDS011;59146;43.850;25.948;2024-02-15T12:33:10;17.48;;;9.20;;
71343;SDS011;59146;43.850;25.948;2024-02-15T12:35:37;15.60;;;10.38;;
71343;SDS011;59146;43.850;25.948;2024-02-15T12:38:03;13.98;;;8.77;;
71343;SDS011;59146;43.850;25.948;2024-02-15T12:40:33;14.00;;;8.85;;
71343;SDS011;59146;43.850;25.948;2024-02-15T12:42:59;15.40;;;8.93;;
71343;SDS011;59146;43.850;25.948;2024-02-15T12:45:26;17.45;;;9.13;;
71343;SDS011;59146;43.850;25.948;2024-02-15T12:47:55;16.30;;;9.13;;
71343;SDS011;59146;43.850;25.948;2024-02-15T12:50:28;14.98;;;9.50;;
71343;SDS011;59146;43.850;25.948;2024-02-15T12:52:54;19.42;;;9.43;;
71343;SDS011;59146;43.850;25.948;2024-02-15T12:55:24;19.10;;;10.40;;
71343;SDS011;59146;43.850;25.948;2024-02-15T12:57:50;20.83;;;10.85;;
71343;SDS011;59146;43.850;25.948;2024-02-15T13:00:23;28.50;;;9.70;;
71343;SDS011;59146;43.850;25.948;2024-02-15T13:03:01;12.02;;;8.25;;
71343;SDS011;59146;43.850;25.948;2024-02-15T13:05:28;14.43;;;8.52;;
71343;SDS011;59146;43.850;25.948;2024-02-15T13:07:55;15.07;;;9.20;;
71343;SDS011;59146;43.850;25.948;2024-02-15T13:10:22;12.95;;;8.60;;
71343;SDS011;59146;43.850;25.948;2024-02-15T13:12:50;21.23;;;8.43;;
71343;SDS011;59146;43.850;25.948;2024-02-15T13:15:17;13.68;;;8.73;;
71343;SDS011;59146;43.850;25.948;2024-02-15T13:17:44;15.38;;;9.13;;
71343;SDS011;59146;43.850;25.948;2024-02-15T13:20:11;19.80;;;9.20;;
71343;SDS011;59146;43.850;25.948;2024-02-15T13:22:41;14.32;;;9.18;;
71343;SDS011;59146;43.850;25.948;2024-02-15T13:25:09;18.40;;;10.73;;
71343;SDS011;59146;43.850;25.948;2024-02-15T13:27:37;18.27;;;11.43;;
71343;SDS011;59146;43.850;25.948;2024-02-15T13:30:04;19.10;;;10.27;;
71343;SDS011;59146;43.850;25.948;2024-02-15T13:32:34;12.50;;;8.63;;
71343;SDS011;59146;43.850;25.948;2024-02-15T13:35:07;12.95;;;7.68;;
71343;SDS011;59146;43.850;25.948;2024-02-15T13:37:46;10.18;;;7.15;;
71343;SDS011;59146;43.850;25.948;2024-02-15T13:40:12;18.40;;;7.40;;
71343;SDS011;59146;43.850;25.948;2024-02-15T13:42:43;8.10;;;6.32;;
71343;SDS011;59146;43.850;25.948;2024-02-15T13:45:14;13.55;;;7.57;;
71343;SDS011;59146;43.850;25.948;2024-02-15T13:47:50;8.93;;;6.90;;
71343;SDS011;59146;43.850;25.948;2024-02-15T13:50:16;11.50;;;6.90;;
71343;SDS011;59146;43.850;25.948;2024-02-15T13:52:43;10.43;;;7.13;;
71343;SDS011;59146;43.850;25.948;2024-02-15T13:55:12;11.00;;;6.55;;
71343;SDS011;59146;43.850;25.948;2024-02-15T13:57:40;20.30;;;7.30;;
71343;SDS011;59146;43.850;25.948;2024-02-15T14:00:07;11.82;;;7.55;;
71343;SDS011;59146;43.850;25.948;2024-02-15T14:02:38;25.77;;;8.82;;
71343;SDS011;59146;43.850;25.948;2024-02-15T14:05:08;10.52;;;8.05;;
71343;SDS011;59146;43.850;25.948;2024-02-15T14:07:36;19.05;;;9.05;;
71343;SDS011;59146;43.850;25.948;2024-02-15T14:10:03;29.27;;;10.18;;
71343;SDS011;59146;43.850;25.948;2024-02-15T14:12:29;25.08;;;9.18;;
71343;SDS011;59146;43.850;25.948;2024-02-15T14:14:55;29.05;;;8.40;;
71343;SDS011;59146;43.850;25.948;2024-02-15T14:17:21;13.52;;;8.18;;
71343;SDS011;59146;43.850;25.948;2024-02-15T14:19:47;15.10;;;7.80;;
71343;SDS011;59146;43.850;25.948;2024-02-15T14:22:13;15.70;;;8.13;;
71343;SDS011;59146;43.850;25.948;2024-02-15T14:24:41;17.20;;;7.72;;
71343;SDS011;59146;43.850;25.948;2024-02-15T14:27:08;27.15;;;8.82;;
71343;SDS011;59146;43.850;25.948;2024-02-15T14:29:34;15.20;;;7.00;;